createdAt,value
2022-11-29T00:02:16.913Z,12.93
2022-11-29T00:04:43.854Z,10.80
2022-11-29T00:07:10.534Z,11.97
2022-11-29T00:09:37.178Z,10.97
2022-11-29T00:12:12.740Z,9.30
2022-11-29T00:14:39.261Z,9.60
2022-11-29T00:17:06.040Z,11.87
2022-11-29T00:19:32.610Z,10.03
2022-11-29T00:21:59.090Z,10.40
2022-11-29T00:24:25.740Z,10.97
2022-11-29T00:26:52.315Z,9.70
2022-11-29T00:29:18.809Z,10.57
2022-11-29T00:31:45.315Z,13.80
2022-11-29T00:34:11.853Z,11.27
2022-11-29T00:36:38.388Z,11.97
2022-11-29T00:39:04.877Z,11.33
2022-11-29T00:41:31.373Z,10.50
2022-11-29T00:43:57.901Z,17.03
2022-11-29T00:46:25.099Z,11.60
2022-11-29T00:48:51.623Z,11.43
2022-11-29T00:51:18.122Z,10.17
2022-11-29T00:53:44.659Z,10.50
2022-11-29T00:56:11.174Z,9.63
2022-11-29T00:58:37.769Z,11.30
2022-11-29T01:01:04.338Z,9.57
2022-11-29T01:03:30.892Z,10.80
2022-11-29T01:05:57.375Z,8.80
2022-11-29T01:08:23.891Z,11.30
2022-11-29T01:10:50.371Z,7.30
2022-11-29T01:13:16.945Z,8.50
2022-11-29T01:15:43.469Z,7.43
2022-11-29T01:18:10.388Z,7.87
2022-11-29T01:20:36.864Z,8.73
2022-11-29T01:23:03.481Z,9.77
2022-11-29T01:25:31.972Z,9.20
2022-11-29T01:27:58.507Z,9.20
2022-11-29T01:30:25.688Z,9.63
2022-11-29T01:32:52.259Z,11.40
2022-11-29T01:35:18.735Z,9.93
2022-11-29T01:37:45.218Z,8.87
2022-11-29T01:40:11.749Z,13.13
2022-11-29T01:42:38.242Z,7.90
2022-11-29T01:45:04.780Z,9.10
2022-11-29T01:47:31.308Z,11.47
2022-11-29T01:49:57.795Z,9.50
2022-11-29T01:52:24.369Z,8.50
2022-11-29T01:54:50.859Z,11.40
2022-11-29T01:57:17.337Z,8.77
2022-11-29T01:59:43.833Z,10.20
2022-11-29T02:02:10.353Z,9.47
2022-11-29T02:04:36.959Z,9.40
2022-11-29T02:07:03.462Z,10.87
2022-11-29T02:09:29.954Z,8.97
2022-11-29T02:11:56.509Z,7.43
2022-11-29T02:14:23.070Z,8.97
2022-11-29T02:16:55.008Z,9.97
2022-11-29T02:19:22.978Z,8.40
2022-11-29T02:21:49.501Z,8.30
2022-11-29T02:24:16.047Z,9.93
2022-11-29T02:26:42.527Z,7.90
2022-11-29T02:29:09.102Z,6.00
2022-11-29T02:31:35.587Z,6.47
2022-11-29T02:34:02.126Z,6.63
2022-11-29T02:36:28.615Z,6.30
2022-11-29T02:38:55.181Z,5.87
2022-11-29T02:41:21.863Z,6.43
2022-11-29T02:43:48.395Z,6.60
2022-11-29T02:46:14.887Z,6.00
2022-11-29T02:48:41.489Z,5.57
2022-11-29T02:51:08.006Z,6.60
2022-11-29T02:53:34.529Z,6.40
2022-11-29T02:56:01.119Z,6.40
2022-11-29T02:58:27.700Z,5.90
2022-11-29T03:00:54.176Z,4.40
2022-11-29T03:03:20.715Z,6.30
2022-11-29T03:05:47.231Z,5.27
2022-11-29T03:08:17.653Z,4.67
2022-11-29T03:10:44.138Z,5.10
2022-11-29T03:13:10.616Z,4.33
2022-11-29T03:15:37.318Z,6.40
2022-11-29T03:18:03.932Z,5.73
2022-11-29T03:20:30.494Z,5.37
2022-11-29T03:22:56.979Z,4.33
2022-11-29T03:25:23.502Z,4.73
2022-11-29T03:27:49.978Z,5.63
2022-11-29T03:30:16.521Z,4.37
2022-11-29T03:32:43.010Z,4.50
2022-11-29T03:35:09.504Z,4.03
2022-11-29T03:37:36.244Z,3.33
2022-11-29T03:40:02.745Z,2.83
2022-11-29T03:42:29.259Z,3.30
2022-11-29T03:44:55.790Z,3.20
2022-11-29T03:47:22.272Z,2.93
2022-11-29T03:49:48.756Z,2.20
2022-11-29T03:52:15.223Z,2.50
2022-11-29T03:54:43.219Z,2.33
2022-11-29T03:57:10.021Z,3.00
2022-11-29T03:59:36.530Z,2.40
2022-11-29T04:02:03.736Z,5.73
2022-11-29T04:04:30.241Z,2.63
2022-11-29T04:06:56.748Z,2.40
2022-11-29T04:09:23.227Z,3.67
2022-11-29T04:11:59.195Z,2.00
2022-11-29T04:14:25.729Z,4.13
2022-11-29T04:16:52.275Z,2.10
2022-11-29T04:19:18.822Z,2.57
2022-11-29T04:21:45.300Z,3.03
2022-11-29T04:24:11.791Z,2.67
2022-11-29T04:26:38.290Z,4.10
2022-11-29T04:29:04.779Z,6.27
2022-11-29T04:31:31.357Z,4.00
2022-11-29T04:33:57.871Z,2.47
2022-11-29T04:36:24.360Z,2.27
2022-11-29T04:38:50.856Z,4.47
2022-11-29T04:41:17.338Z,4.70
2022-11-29T04:43:43.902Z,3.30
2022-11-29T04:46:10.494Z,3.17
2022-11-29T04:48:37.323Z,3.60
2022-11-29T04:51:03.839Z,3.40
2022-11-29T04:53:30.580Z,6.00
2022-11-29T04:55:57.089Z,4.30
2022-11-29T04:58:23.688Z,3.53
2022-11-29T05:00:50.187Z,3.13
2022-11-29T05:03:16.901Z,3.47
2022-11-29T05:05:43.406Z,3.50
2022-11-29T05:08:09.943Z,4.40
2022-11-29T05:10:36.409Z,3.47
2022-11-29T05:13:02.916Z,2.17
2022-11-29T05:15:29.388Z,3.23
2022-11-29T05:17:56.513Z,3.17
2022-11-29T05:20:23.036Z,3.57
2022-11-29T05:22:49.536Z,2.77
2022-11-29T05:25:16.014Z,3.00
2022-11-29T05:27:42.557Z,2.03
2022-11-29T05:30:09.122Z,2.23
2022-11-29T05:32:35.750Z,2.17
2022-11-29T05:35:02.252Z,2.70
2022-11-29T05:37:28.756Z,2.40
2022-11-29T05:39:55.227Z,2.60
2022-11-29T05:42:21.754Z,2.70
2022-11-29T05:44:48.291Z,2.70
2022-11-29T05:47:14.834Z,3.50
2022-11-29T05:49:41.330Z,6.97
2022-11-29T05:52:07.805Z,2.70
2022-11-29T05:54:34.283Z,2.47
2022-11-29T05:57:00.802Z,2.43
2022-11-29T05:59:27.332Z,4.17
2022-11-29T06:01:53.960Z,2.80
2022-11-29T06:04:21.260Z,2.90
2022-11-29T06:06:47.784Z,3.40
2022-11-29T06:09:14.282Z,3.80
2022-11-29T06:11:40.799Z,3.60
2022-11-29T06:14:07.286Z,3.47
2022-11-29T06:16:33.819Z,3.50
2022-11-29T06:19:00.353Z,3.53
2022-11-29T06:21:27.462Z,3.07
2022-11-29T06:23:54.108Z,3.70
2022-11-29T06:26:22.583Z,4.17
2022-11-29T06:28:49.078Z,4.00
2022-11-29T06:31:15.631Z,6.80
2022-11-29T06:33:42.182Z,2.83
2022-11-29T06:36:08.715Z,3.23
2022-11-29T06:38:35.273Z,3.60
2022-11-29T06:41:02.532Z,4.03
2022-11-29T06:43:29.233Z,3.87
2022-11-29T06:45:55.817Z,3.30
2022-11-29T06:48:22.343Z,3.50
2022-11-29T06:50:48.914Z,4.40
2022-11-29T06:53:15.431Z,3.40
2022-11-29T06:55:42.051Z,5.40
2022-11-29T06:58:08.624Z,4.60
2022-11-29T07:00:35.202Z,5.13
2022-11-29T07:03:01.767Z,5.00
2022-11-29T07:05:28.404Z,4.80
2022-11-29T07:07:55.024Z,6.03
2022-11-29T07:10:21.642Z,6.40
2022-11-29T07:12:48.191Z,5.30
2022-11-29T07:15:14.762Z,5.37
2022-11-29T07:17:41.390Z,5.80
2022-11-29T07:20:08.610Z,5.37
2022-11-29T07:22:35.209Z,5.13
2022-11-29T07:25:01.712Z,5.70
2022-11-29T07:27:28.213Z,6.17
2022-11-29T07:29:54.734Z,7.03
2022-11-29T07:32:21.292Z,5.67
2022-11-29T07:34:48.535Z,5.63
2022-11-29T07:37:15.199Z,6.70
2022-11-29T07:39:41.788Z,7.10
2022-11-29T07:42:08.357Z,7.87
2022-11-29T07:44:34.890Z,6.53
2022-11-29T07:47:01.529Z,7.87
2022-11-29T07:49:28.128Z,6.47
2022-11-29T07:51:54.720Z,7.87
2022-11-29T07:54:22.201Z,6.63
2022-11-29T07:56:48.806Z,8.60
2022-11-29T07:59:15.410Z,8.40
2022-11-29T08:01:42.170Z,8.60
2022-11-29T08:04:08.716Z,9.33
2022-11-29T08:06:35.199Z,9.00
2022-11-29T08:09:01.699Z,9.63
2022-11-29T08:11:28.272Z,9.10
2022-11-29T08:13:54.763Z,9.93
2022-11-29T08:16:21.277Z,9.57
2022-11-29T08:18:48.412Z,10.73
2022-11-29T08:21:18.233Z,9.77
2022-11-29T08:23:44.798Z,11.43
2022-11-29T08:26:11.504Z,10.60
2022-11-29T08:28:38.094Z,11.00
2022-11-29T08:31:04.579Z,10.50
2022-11-29T08:33:31.344Z,12.67
2022-11-29T08:35:57.855Z,12.10
2022-11-29T08:38:24.395Z,11.07
2022-11-29T08:40:50.869Z,11.53
2022-11-29T08:43:17.357Z,12.30
2022-11-29T08:45:43.884Z,10.87
2022-11-29T08:48:10.466Z,11.90
2022-11-29T08:50:36.948Z,11.50
2022-11-29T08:53:22.451Z,12.57
2022-11-29T08:55:48.995Z,12.60
2022-11-29T08:58:15.531Z,12.67
2022-11-29T09:00:42.053Z,13.60
2022-11-29T09:03:27.356Z,12.70
2022-11-29T09:05:53.965Z,12.40
2022-11-29T09:08:20.530Z,14.40
2022-11-29T09:10:47.328Z,14.50
2022-11-29T09:13:13.872Z,17.27
2022-11-29T09:15:41.744Z,15.30
2022-11-29T09:18:08.287Z,19.30
2022-11-29T09:20:34.873Z,18.97
2022-11-29T09:23:01.427Z,21.43
2022-11-29T09:25:27.906Z,22.03
2022-11-29T09:27:54.393Z,22.67
2022-11-29T09:30:23.827Z,24.20
2022-11-29T09:32:50.559Z,23.73
2022-11-29T09:35:17.425Z,24.53
2022-11-29T09:37:43.982Z,26.03
2022-11-29T09:40:10.479Z,25.20
2022-11-29T09:42:36.955Z,26.33
2022-11-29T09:45:04.030Z,25.67
2022-11-29T09:47:32.728Z,23.30
2022-11-29T09:49:59.228Z,24.67
2022-11-29T09:52:25.697Z,25.07
2022-11-29T09:54:52.366Z,23.90
2022-11-29T09:57:19.622Z,24.60
2022-11-29T09:59:46.135Z,25.30
2022-11-29T10:02:15.867Z,25.90
2022-11-29T10:04:45.118Z,26.40
2022-11-29T10:07:11.887Z,28.50
2022-11-29T10:09:38.599Z,25.90
2022-11-29T10:12:05.105Z,28.00
2022-11-29T10:14:31.607Z,26.77
2022-11-29T10:16:58.205Z,21.67
2022-11-29T10:19:24.719Z,27.07
2022-11-29T10:21:51.236Z,26.53
2022-11-29T10:24:19.074Z,23.00
2022-11-29T10:26:45.718Z,23.20
2022-11-29T10:29:12.214Z,23.33
2022-11-29T10:31:42.652Z,21.60
2022-11-29T10:34:09.188Z,22.83
2022-11-29T10:36:35.687Z,21.67
2022-11-29T10:39:02.178Z,22.70
2022-11-29T10:41:28.665Z,21.27
2022-11-29T10:43:55.141Z,21.33
2022-11-29T10:46:21.842Z,24.10
2022-11-29T10:48:48.500Z,23.70
2022-11-29T10:51:14.992Z,26.47
2022-11-29T10:53:41.480Z,27.23
2022-11-29T10:56:08.046Z,26.57
2022-11-29T10:58:34.625Z,25.70
2022-11-29T11:01:01.306Z,27.07
2022-11-29T11:03:27.846Z,26.60
2022-11-29T11:05:54.415Z,26.57
2022-11-29T11:08:20.929Z,27.37
2022-11-29T11:10:53.031Z,26.13
2022-11-29T11:13:21.084Z,25.07
2022-11-29T11:15:47.624Z,24.70
2022-11-29T11:18:14.104Z,23.70
2022-11-29T11:20:40.604Z,23.50
2022-11-29T11:23:07.146Z,23.57
2022-11-29T11:25:36.677Z,23.33
2022-11-29T11:28:03.154Z,23.00
2022-11-29T11:30:29.731Z,19.40
2022-11-29T11:32:56.237Z,20.53
2022-11-29T11:35:22.767Z,19.47
2022-11-29T11:37:49.251Z,20.33
2022-11-29T11:40:15.767Z,20.90
2022-11-29T11:42:42.699Z,21.70
2022-11-29T11:45:09.363Z,19.67
2022-11-29T11:47:36.251Z,17.53
2022-11-29T11:50:03.344Z,19.40
2022-11-29T11:52:29.848Z,21.07
2022-11-29T11:54:56.443Z,18.23
2022-11-29T11:57:23.229Z,18.53
2022-11-29T11:59:49.805Z,18.17
2022-11-29T12:02:16.469Z,17.80
2022-11-29T12:04:43.403Z,16.73
2022-11-29T12:07:10.141Z,19.30
2022-11-29T12:09:36.681Z,17.10
2022-11-29T12:12:03.582Z,16.57
2022-11-29T12:14:30.126Z,17.80
2022-11-29T12:16:56.621Z,17.50
2022-11-29T12:19:23.115Z,18.17
2022-11-29T12:21:52.381Z,17.57
2022-11-29T12:24:18.912Z,15.03
2022-11-29T12:27:00.917Z,17.60
2022-11-29T12:29:27.468Z,17.23
2022-11-29T12:31:55.155Z,19.53
2022-11-29T12:34:22.770Z,18.90
2022-11-29T12:36:49.408Z,19.27
2022-11-29T12:39:15.919Z,19.07
2022-11-29T12:41:42.435Z,18.00
2022-11-29T12:44:09.284Z,17.23
2022-11-29T12:46:35.847Z,20.13
2022-11-29T12:49:02.484Z,18.60
2022-11-29T12:51:29.110Z,18.30
2022-11-29T12:53:55.599Z,17.00
2022-11-29T12:56:22.141Z,18.30
2022-11-29T12:58:48.662Z,21.13
2022-11-29T13:01:15.251Z,21.10
2022-11-29T13:03:41.835Z,17.53
2022-11-29T13:06:08.367Z,17.10
2022-11-29T13:08:34.850Z,17.23
2022-11-29T13:11:01.399Z,15.10
2022-11-29T13:13:27.887Z,16.27
2022-11-29T13:15:54.575Z,14.90
2022-11-29T13:18:21.108Z,17.87
2022-11-29T13:20:47.600Z,14.60
2022-11-29T13:23:14.248Z,15.43
2022-11-29T13:25:40.768Z,16.50
2022-11-29T13:28:07.258Z,14.00
2022-11-29T13:30:33.744Z,16.67
2022-11-29T13:33:00.252Z,16.23
2022-11-29T13:35:26.992Z,16.30
2022-11-29T13:37:55.329Z,14.30
2022-11-29T13:40:22.279Z,17.70
2022-11-29T13:42:50.946Z,15.97
2022-11-29T13:45:17.425Z,15.80
2022-11-29T13:47:43.938Z,14.70
2022-11-29T13:50:10.429Z,16.00
2022-11-29T13:52:36.948Z,14.03
2022-11-29T13:55:03.438Z,22.27
2022-11-29T13:57:38.938Z,13.27
2022-11-29T14:00:16.505Z,14.97
2022-11-29T14:02:43.093Z,13.23
2022-11-29T14:05:09.614Z,14.80
2022-11-29T14:07:36.382Z,16.10
2022-11-29T14:10:03.244Z,13.53
2022-11-29T14:12:31.037Z,15.43
2022-11-29T14:14:57.647Z,14.73
2022-11-29T14:17:24.128Z,16.40
2022-11-29T14:19:50.629Z,13.33
2022-11-29T14:22:17.123Z,15.30
2022-11-29T14:24:43.902Z,16.40
2022-11-29T14:27:12.331Z,13.40
2022-11-29T14:29:38.827Z,14.20
2022-11-29T14:32:05.328Z,15.33
2022-11-29T14:34:31.829Z,13.77
2022-11-29T14:36:58.349Z,15.07
2022-11-29T14:39:24.977Z,14.93
2022-11-29T14:41:51.483Z,14.80
2022-11-29T14:44:18.025Z,16.60
2022-11-29T14:46:44.568Z,13.80
2022-11-29T14:49:11.133Z,13.20
2022-11-29T14:51:37.602Z,13.77
2022-11-29T14:54:04.159Z,13.57
2022-11-29T14:56:31.511Z,19.47
2022-11-29T14:58:57.997Z,14.23
2022-11-29T15:01:24.527Z,13.17
2022-11-29T15:03:51.163Z,14.53
2022-11-29T15:06:17.956Z,13.50
2022-11-29T15:08:44.483Z,14.03
2022-11-29T15:11:10.969Z,12.53
2022-11-29T15:13:37.515Z,14.67
2022-11-29T15:16:08.882Z,14.63
2022-11-29T15:18:35.946Z,15.10
2022-11-29T15:21:02.423Z,14.67
2022-11-29T15:23:28.907Z,14.20
2022-11-29T15:25:55.415Z,15.70
2022-11-29T15:28:22.187Z,13.33
2022-11-29T15:30:48.931Z,14.97
2022-11-29T15:33:15.451Z,13.70
2022-11-29T15:35:42.017Z,15.73
2022-11-29T15:38:08.579Z,13.70
2022-11-29T15:40:36.947Z,14.40
2022-11-29T15:43:04.975Z,16.67
2022-11-29T15:45:31.554Z,17.40
2022-11-29T15:47:58.159Z,17.20
2022-11-29T15:50:25.731Z,20.70
2022-11-29T15:52:52.234Z,20.47
2022-11-29T15:55:18.749Z,20.33
2022-11-29T15:57:45.282Z,18.77
2022-11-29T16:00:11.769Z,21.30
2022-11-29T16:02:38.332Z,17.60
2022-11-29T16:05:04.819Z,21.13
2022-11-29T16:07:34.597Z,19.10
2022-11-29T16:10:01.146Z,19.40
2022-11-29T16:12:27.608Z,26.90
2022-11-29T16:14:55.719Z,37.00
2022-11-29T16:17:22.234Z,27.70
2022-11-29T16:19:48.768Z,22.67
2022-11-29T16:22:15.317Z,23.30
2022-11-29T16:24:41.906Z,25.20
2022-11-29T16:27:08.476Z,29.63
2022-11-29T16:29:35.022Z,24.93
2022-11-29T16:32:01.529Z,22.23
2022-11-29T16:34:28.180Z,23.20
2022-11-29T16:37:00.632Z,24.03
2022-11-29T16:39:27.575Z,23.90
2022-11-29T16:41:54.067Z,20.87
2022-11-29T16:44:20.541Z,22.50
2022-11-29T16:46:47.036Z,22.83
2022-11-29T16:49:13.542Z,20.27
2022-11-29T16:51:40.718Z,20.30
2022-11-29T16:54:07.222Z,19.87
2022-11-29T16:56:33.709Z,19.93
2022-11-29T16:59:24.688Z,20.30
2022-11-29T17:01:46.783Z,24.17
2022-11-29T17:04:13.336Z,20.10
2022-11-29T17:06:51.096Z,22.80
2022-11-29T17:09:17.587Z,21.37
2022-11-29T17:11:44.109Z,21.97
2022-11-29T17:14:10.875Z,23.00
2022-11-29T17:16:37.442Z,20.43
2022-11-29T17:19:04.017Z,23.20
2022-11-29T17:21:31.299Z,20.27
2022-11-29T17:23:57.807Z,24.17
2022-11-29T17:26:24.335Z,21.57
2022-11-29T17:28:51.034Z,23.07
2022-11-29T17:31:17.657Z,22.83
2022-11-29T17:33:44.285Z,21.80
2022-11-29T17:36:10.893Z,24.07
2022-11-29T17:38:37.406Z,23.30
2022-11-29T17:41:04.021Z,23.20
2022-11-29T17:43:30.532Z,22.87
2022-11-29T17:45:57.345Z,23.60
2022-11-29T17:48:23.896Z,21.17
2022-11-29T17:50:50.466Z,21.50
2022-11-29T17:53:16.997Z,22.10
2022-11-29T17:55:43.527Z,21.20
2022-11-29T17:58:10.068Z,22.20
2022-11-29T18:00:36.604Z,22.70
2022-11-29T18:03:03.274Z,23.07
2022-11-29T18:05:34.587Z,23.63
2022-11-29T18:08:01.661Z,26.17
2022-11-29T18:10:28.265Z,21.17
2022-11-29T18:12:54.856Z,21.83
2022-11-29T18:15:21.447Z,23.20
2022-11-29T18:17:48.063Z,23.97
2022-11-29T18:20:14.635Z,25.87
2022-11-29T18:22:41.135Z,24.97
2022-11-29T18:25:36.810Z,23.83
2022-11-29T18:27:54.317Z,24.37
2022-11-29T18:30:20.903Z,21.93
2022-11-29T18:32:47.482Z,25.03
2022-11-29T18:35:14.041Z,23.87
2022-11-29T18:38:13.410Z,22.47
2022-11-29T18:40:27.281Z,24.30
2022-11-29T18:42:53.784Z,26.77
2022-11-29T18:45:20.296Z,25.57
2022-11-29T18:47:47.035Z,24.10
2022-11-29T18:50:13.720Z,27.60
2022-11-29T18:52:40.921Z,23.13
2022-11-29T18:55:07.468Z,23.10
2022-11-29T18:57:34.030Z,23.50
2022-11-29T19:00:00.536Z,23.33
2022-11-29T19:02:27.042Z,20.67
2022-11-29T19:04:53.730Z,23.60
2022-11-29T19:07:20.290Z,19.80
2022-11-29T19:09:46.819Z,23.87
2022-11-29T19:12:13.317Z,22.97
2022-11-29T19:14:42.743Z,22.10
2022-11-29T19:17:11.752Z,22.60
2022-11-29T19:19:38.506Z,22.17
2022-11-29T19:22:05.090Z,21.67
2022-11-29T19:24:31.582Z,21.77
2022-11-29T19:26:59.185Z,21.07
2022-11-29T19:29:25.726Z,23.57
2022-11-29T19:31:52.287Z,21.30
2022-11-29T19:34:18.802Z,24.57
2022-11-29T19:36:45.648Z,24.40
2022-11-29T19:39:12.713Z,22.83
2022-11-29T19:41:39.525Z,21.47
2022-11-29T19:44:06.052Z,22.77
2022-11-29T19:46:32.637Z,22.80
2022-11-29T19:48:59.259Z,22.20
2022-11-29T19:51:25.905Z,23.00
2022-11-29T19:53:52.505Z,23.20
2022-11-29T19:56:20.553Z,22.73
2022-11-29T19:58:47.069Z,25.30
2022-11-29T20:01:13.710Z,20.47
2022-11-29T20:03:40.485Z,22.83
2022-11-29T20:06:07.245Z,21.90
2022-11-29T20:08:33.944Z,22.33
2022-11-29T20:11:00.449Z,20.70
2022-11-29T20:13:26.958Z,18.73
2022-11-29T20:15:53.485Z,22.17
2022-11-29T20:18:23.329Z,19.07
2022-11-29T20:20:49.804Z,19.27
2022-11-29T20:23:16.306Z,22.73
2022-11-29T20:25:42.838Z,19.67
2022-11-29T20:28:09.688Z,23.97
2022-11-29T20:30:36.233Z,18.57
2022-11-29T20:33:02.757Z,21.07
2022-11-29T20:35:29.365Z,19.00
2022-11-29T20:37:55.992Z,17.73
2022-11-29T20:40:22.472Z,19.17
2022-11-29T20:42:49.009Z,20.20
2022-11-29T20:45:15.574Z,24.43
2022-11-29T20:47:42.133Z,21.33
2022-11-29T20:50:08.730Z,20.30
2022-11-29T20:52:35.288Z,21.00
2022-11-29T20:55:01.876Z,22.80
2022-11-29T20:57:28.404Z,19.90
2022-11-29T20:59:55.059Z,19.77
2022-11-29T21:02:21.597Z,20.30
2022-11-29T21:04:48.311Z,19.83
2022-11-29T21:07:15.172Z,20.70
2022-11-29T21:09:41.653Z,20.33
2022-11-29T21:12:08.270Z,21.17
2022-11-29T21:14:34.873Z,20.37
2022-11-29T21:17:01.692Z,21.50
2022-11-29T21:19:28.348Z,20.47
2022-11-29T21:21:54.856Z,20.83
2022-11-29T21:24:21.418Z,21.70
2022-11-29T21:26:47.912Z,20.60
2022-11-29T21:29:14.454Z,20.10
2022-11-29T21:31:41.095Z,19.27
2022-11-29T21:34:08.634Z,19.07
2022-11-29T21:36:35.217Z,20.27
2022-11-29T21:39:05.164Z,21.97
2022-11-29T21:41:32.329Z,20.37
2022-11-29T21:44:06.425Z,20.60
2022-11-29T21:46:33.575Z,20.90
2022-11-29T21:49:00.198Z,18.30
2022-11-29T21:51:26.716Z,22.83
2022-11-29T21:53:53.299Z,19.10
2022-11-29T21:56:19.922Z,23.40
2022-11-29T21:58:46.446Z,18.23
2022-11-29T22:01:13.318Z,19.57
2022-11-29T22:03:40.022Z,18.40
2022-11-29T22:06:06.612Z,19.27
2022-11-29T22:08:33.144Z,19.63
2022-11-29T22:10:59.693Z,19.70
2022-11-29T22:13:26.215Z,20.80
2022-11-29T22:15:52.766Z,19.57
2022-11-29T22:18:19.319Z,20.30
2022-11-29T22:20:47.257Z,17.37
2022-11-29T22:23:13.783Z,17.63
2022-11-29T22:25:40.357Z,18.80
2022-11-29T22:28:06.859Z,19.93
2022-11-29T22:30:33.536Z,18.47
2022-11-29T22:33:00.299Z,19.43
2022-11-29T22:35:27.079Z,19.57
2022-11-29T22:37:53.710Z,18.03
2022-11-29T22:40:20.214Z,17.57
2022-11-29T22:42:46.916Z,18.70
2022-11-29T22:45:13.563Z,18.50
2022-11-29T22:47:40.082Z,18.57
2022-11-29T22:50:06.611Z,18.20
2022-11-29T22:52:33.119Z,17.33
2022-11-29T22:55:04.576Z,18.07
2022-11-29T22:57:31.692Z,18.73
2022-11-29T22:59:58.205Z,18.93
2022-11-29T23:02:24.773Z,20.00
2022-11-29T23:04:51.316Z,16.90
2022-11-29T23:07:17.874Z,18.27
2022-11-29T23:09:44.652Z,17.97
2022-11-29T23:12:11.235Z,17.10
2022-11-29T23:14:37.746Z,15.10
2022-11-29T23:17:04.304Z,15.90
2022-11-29T23:19:30.819Z,14.53
2022-11-29T23:21:57.335Z,14.90
2022-11-29T23:24:23.896Z,15.87
2022-11-29T23:26:50.446Z,14.83
2022-11-29T23:29:17.037Z,16.43
2022-11-29T23:31:43.589Z,16.30
2022-11-29T23:34:10.207Z,17.70
2022-11-29T23:36:36.816Z,16.87
2022-11-29T23:39:03.366Z,15.67
2022-11-29T23:41:29.935Z,16.40
2022-11-29T23:43:56.472Z,17.97
2022-11-29T23:46:23.010Z,15.97
2022-11-29T23:48:49.542Z,16.43
2022-11-29T23:51:16.067Z,14.63
2022-11-29T23:53:42.715Z,16.47
2022-11-29T23:56:09.258Z,16.03
2022-11-29T23:58:35.814Z,15.40
